Time;durP1;ratioP1;P1;durP2;ratioP2;P2;SDS_P1;SDS_P2;PMS_P1;PMS_P2;Temp;Humidity;BMP_temperature;BMP_pressure;BME280_temperature;BME280_humidity;BME280_pressure;Samples;Min_cycle;Max_cycle;Signal;HPM_P1;HPM_P2
2022/07/31 00:00:43;;;;;;;25.20;14.73;;;;;;;;;;5079468;28;20039;-76
2022/07/31 00:03:10;;;;;;;26.65;14.85;;;;;;;;;;5073505;28;20027;-76
2022/07/31 00:05:36;;;;;;;32.20;14.75;;;;;;;;;;5058811;28;20062;-75
2022/07/31 00:08:02;;;;;;;27.58;14.38;;;;;;;;;;5058502;28;20054;-75
2022/07/31 00:10:28;;;;;;;24.80;13.05;;;;;;;;;;5059281;28;20381;-75
2022/07/31 00:12:54;;;;;;;27.45;13.57;;;;;;;;;;5076823;28;20032;-76
2022/07/31 00:15:20;;;;;;;27.73;15.63;;;;;;;;;;5077442;28;20025;-75
2022/07/31 00:17:47;;;;;;;28.35;14.18;;;;;;;;;;5077238;28;20056;-75
2022/07/31 00:20:14;;;;;;;22.80;13.35;;;;;;;;;;5077496;28;20017;-73
2022/07/31 00:22:41;;;;;;;28.33;13.68;;;;;;;;;;5077038;28;20449;-75
2022/07/31 00:25:07;;;;;;;19.85;12.25;;;;;;;;;;5077473;28;20029;-75
2022/07/31 00:27:33;;;;;;;28.50;13.93;;;;;;;;;;5079933;28;20024;-75
2022/07/31 00:29:59;;;;;;;29.05;13.27;;;;;;;;;;5083178;28;20103;-74
2022/07/31 00:32:25;;;;;;;26.08;12.85;;;;;;;;;;5079504;28;20120;-75
2022/07/31 00:34:51;;;;;;;21.52;12.48;;;;;;;;;;5080239;28;20492;-75
2022/07/31 00:37:17;;;;;;;30.70;11.32;;;;;;;;;;5080497;28;20074;-75
2022/07/31 00:39:43;;;;;;;28.98;12.32;;;;;;;;;;5080449;28;20025;-75
2022/07/31 00:42:19;;;;;;;27.45;11.88;;;;;;;;;;5079308;28;20024;-74
2022/07/31 00:44:45;;;;;;;20.75;11.80;;;;;;;;;;5064259;28;20081;-74
2022/07/31 00:47:11;;;;;;;24.67;13.13;;;;;;;;;;5081173;28;20021;-75
2022/07/31 00:49:37;;;;;;;27.90;13.40;;;;;;;;;;5082207;28;20021;-75
2022/07/31 00:52:03;;;;;;;18.45;12.20;;;;;;;;;;5081530;28;20051;-75
2022/07/31 00:54:29;;;;;;;25.45;13.35;;;;;;;;;;5063099;28;20024;-75
2022/07/31 00:56:55;;;;;;;22.25;12.38;;;;;;;;;;5081810;28;20028;-76
2022/07/31 00:59:21;;;;;;;26.40;14.10;;;;;;;;;;5081828;28;20035;-75
2022/07/31 01:01:47;;;;;;;24.90;13.52;;;;;;;;;;5085677;28;20078;-75
2022/07/31 01:04:15;;;;;;;21.45;13.65;;;;;;;;;;5084297;28;20032;-76
2022/07/31 01:06:41;;;;;;;24.50;14.43;;;;;;;;;;5083391;28;20043;-75
2022/07/31 01:09:07;;;;;;;27.90;15.65;;;;;;;;;;5085399;28;20020;-75
2022/07/31 01:11:53;;;;;;;29.20;15.82;;;;;;;;;;5068972;28;20048;-74
2022/07/31 01:14:19;;;;;;;22.67;14.15;;;;;;;;;;5075480;28;20032;-75
2022/07/31 01:16:50;;;;;;;26.27;14.52;;;;;;;;;;5077798;28;20028;-74
2022/07/31 01:19:23;;;;;;;31.48;16.52;;;;;;;;;;5079920;28;20020;-74
2022/07/31 01:21:55;;;;;;;27.65;14.65;;;;;;;;;;5057613;28;20021;-75
2022/07/31 01:24:32;;;;;;;27.27;15.75;;;;;;;;;;5059167;28;20378;-75
2022/07/31 01:27:02;;;;;;;28.83;14.13;;;;;;;;;;5059528;28;20100;-75
2022/07/31 01:29:29;;;;;;;28.20;15.05;;;;;;;;;;5061589;28;20021;-75
2022/07/31 01:32:02;;;;;;;21.63;13.23;;;;;;;;;;5063828;28;20051;-77
2022/07/31 01:35:00;;;;;;;23.70;13.55;;;;;;;;;;5079193;28;20058;-75
2022/07/31 01:37:52;;;;;;;22.85;13.55;;;;;;;;;;5010363;28;20041;-76
2022/07/31 01:40:25;;;;;;;22.98;11.88;;;;;;;;;;5021419;28;20119;-76
2022/07/31 01:42:58;;;;;;;23.48;12.45;;;;;;;;;;5059401;28;20474;-74
2022/07/31 01:45:25;;;;;;;21.08;12.48;;;;;;;;;;5065242;28;20044;-75
2022/07/31 01:47:52;;;;;;;23.65;11.45;;;;;;;;;;5075088;28;20075;-76
2022/07/31 01:50:19;;;;;;;20.73;12.88;;;;;;;;;;5067448;28;20028;-74
2022/07/31 01:52:45;;;;;;;26.38;12.63;;;;;;;;;;5041676;28;20075;-74
2022/07/31 01:55:12;;;;;;;19.85;11.88;;;;;;;;;;5060184;28;20024;-75
2022/07/31 01:57:41;;;;;;;26.98;12.57;;;;;;;;;;5060972;28;20021;-75
2022/07/31 02:00:08;;;;;;;19.98;11.63;;;;;;;;;;5059374;28;20029;-75
2022/07/31 02:02:35;;;;;;;22.58;12.45;;;;;;;;;;5058113;28;20025;-75
2022/07/31 02:05:02;;;;;;;20.23;13.02;;;;;;;;;;5058330;28;20040;-75
2022/07/31 02:07:28;;;;;;;25.60;12.85;;;;;;;;;;5057066;28;20032;-75
2022/07/31 02:09:55;;;;;;;21.55;11.88;;;;;;;;;;5059047;28;20025;-75
2022/07/31 02:12:22;;;;;;;29.83;12.73;;;;;;;;;;5058967;28;20071;-75
2022/07/31 02:14:49;;;;;;;21.63;12.10;;;;;;;;;;5064937;28;20113;-76
2022/07/31 02:17:15;;;;;;;21.92;12.75;;;;;;;;;;5061904;28;20115;-75
2022/07/31 02:19:42;;;;;;;22.35;13.27;;;;;;;;;;5063749;28;20051;-75
2022/07/31 02:22:08;;;;;;;19.05;11.90;;;;;;;;;;5061305;28;20025;-76
2022/07/31 02:24:34;;;;;;;23.70;13.65;;;;;;;;;;5076628;28;20041;-75
2022/07/31 02:27:00;;;;;;;31.15;16.67;;;;;;;;;;5077797;28;20024;-75
2022/07/31 02:29:27;;;;;;;24.42;13.57;;;;;;;;;;5078359;28;20017;-75
2022/07/31 02:31:55;;;;;;;26.00;13.63;;;;;;;;;;5077742;28;20017;-76
2022/07/31 02:34:22;;;;;;;24.52;14.80;;;;;;;;;;5078106;28;20020;-74
2022/07/31 02:36:49;;;;;;;24.17;14.18;;;;;;;;;;5059396;28;20454;-76
2022/07/31 02:39:16;;;;;;;34.25;15.15;;;;;;;;;;5054335;28;20099;-75
2022/07/31 02:41:42;;;;;;;24.42;14.88;;;;;;;;;;5040295;28;20025;-75
2022/07/31 02:44:11;;;;;;;28.58;16.27;;;;;;;;;;5058736;28;20040;-75
2022/07/31 02:46:37;;;;;;;26.00;14.77;;;;;;;;;;5059994;28;20021;-75
2022/07/31 02:49:03;;;;;;;19.45;13.15;;;;;;;;;;5060960;28;20082;-76
2022/07/31 02:51:30;;;;;;;23.67;14.98;;;;;;;;;;5063196;28;20032;-75
2022/07/31 02:53:56;;;;;;;20.95;13.88;;;;;;;;;;5073796;28;20004;-76
2022/07/31 02:56:23;;;;;;;25.40;15.88;;;;;;;;;;5074515;28;20086;-76
2022/07/31 02:58:50;;;;;;;26.70;15.63;;;;;;;;;;5068146;28;20029;-75
2022/07/31 03:01:16;;;;;;;27.65;15.48;;;;;;;;;;5057777;28;20104;-76
2022/07/31 03:03:42;;;;;;;27.73;15.73;;;;;;;;;;5058066;28;20033;-76
2022/07/31 03:06:08;;;;;;;23.58;15.68;;;;;;;;;;5056786;28;20045;-76
2022/07/31 03:08:34;;;;;;;26.00;16.25;;;;;;;;;;5060213;28;20021;-77
2022/07/31 03:11:00;;;;;;;28.90;17.00;;;;;;;;;;5061091;28;20043;-77
2022/07/31 03:13:28;;;;;;;27.85;15.52;;;;;;;;;;5055175;28;20047;-78
2022/07/31 03:15:55;;;;;;;28.20;15.88;;;;;;;;;;5056726;28;20096;-77
2022/07/31 03:18:21;;;;;;;23.50;14.80;;;;;;;;;;5053609;28;20488;-76
2022/07/31 03:20:50;;;;;;;31.55;16.42;;;;;;;;;;5052727;28;20025;-76
2022/07/31 03:23:17;;;;;;;25.85;15.70;;;;;;;;;;5052886;28;20049;-78
2022/07/31 03:25:43;;;;;;;24.92;17.58;;;;;;;;;;5053854;28;20517;-78
2022/07/31 03:28:09;;;;;;;25.83;16.60;;;;;;;;;;5054603;28;20025;-77
2022/07/31 03:30:36;;;;;;;30.80;16.05;;;;;;;;;;5056002;28;20036;-78
2022/07/31 03:33:02;;;;;;;29.50;15.77;;;;;;;;;;5052822;28;20104;-76
2022/07/31 03:35:28;;;;;;;30.60;15.82;;;;;;;;;;5053214;28;20041;-76
2022/07/31 03:37:54;;;;;;;26.52;15.55;;;;;;;;;;5052897;28;20460;-76
2022/07/31 03:40:20;;;;;;;24.85;15.82;;;;;;;;;;5052750;28;20059;-77
2022/07/31 03:42:50;;;;;;;30.45;18.55;;;;;;;;;;5053699;28;20489;-78
2022/07/31 03:45:17;;;;;;;31.58;18.45;;;;;;;;;;5053652;28;20025;-77
2022/07/31 03:47:43;;;;;;;31.38;17.98;;;;;;;;;;5053411;28;20079;-77
2022/07/31 03:50:09;;;;;;;24.15;17.05;;;;;;;;;;5035145;28;20436;-76
2022/07/31 03:52:35;;;;;;;30.38;19.15;;;;;;;;;;5057111;28;20060;-76
2022/07/31 03:55:01;;;;;;;28.20;18.63;;;;;;;;;;5055005;28;20036;-77
2022/07/31 03:57:28;;;;;;;28.38;19.08;;;;;;;;;;5052604;28;20083;-76
2022/07/31 03:59:56;;;;;;;26.30;18.60;;;;;;;;;;5052780;28;20032;-76
2022/07/31 04:02:22;;;;;;;26.45;17.10;;;;;;;;;;5035159;28;20053;-77
2022/07/31 04:04:48;;;;;;;27.85;17.85;;;;;;;;;;5053681;28;20033;-79
2022/07/31 04:07:14;;;;;;;27.55;17.77;;;;;;;;;;5052950;28;20036;-75
2022/07/31 04:09:40;;;;;;;25.70;17.65;;;;;;;;;;5034695;28;20025;-75
2022/07/31 04:12:06;;;;;;;26.70;17.67;;;;;;;;;;5052288;28;20488;-76
2022/07/31 04:14:32;;;;;;;29.67;18.30;;;;;;;;;;5034954;28;20018;-76
2022/07/31 04:16:58;;;;;;;27.27;18.73;;;;;;;;;;5055681;28;20036;-77
2022/07/31 04:19:24;;;;;;;26.17;17.85;;;;;;;;;;5060837;28;20100;-75
2022/07/31 04:21:50;;;;;;;30.33;18.75;;;;;;;;;;5066028;28;20055;-78
2022/07/31 04:24:17;;;;;;;32.17;19.55;;;;;;;;;;5059072;28;20036;-75
2022/07/31 04:26:43;;;;;;;33.90;21.70;;;;;;;;;;5057167;28;20120;-76
2022/07/31 04:29:10;;;;;;;25.35;18.67;;;;;;;;;;5056394;28;20111;-75
2022/07/31 04:31:35;;;;;;;28.42;19.77;;;;;;;;;;5056878;28;20470;-76
2022/07/31 04:34:02;;;;;;;32.50;20.50;;;;;;;;;;5056949;28;20032;-76
2022/07/31 04:36:28;;;;;;;31.05;20.25;;;;;;;;;;5038376;28;20029;-77
2022/07/31 04:38:54;;;;;;;29.23;19.98;;;;;;;;;;5056600;28;20021;-75
2022/07/31 04:41:20;;;;;;;34.83;20.27;;;;;;;;;;5056762;28;20147;-75
2022/07/31 04:43:46;;;;;;;31.65;22.00;;;;;;;;;;5055740;28;20029;-73
2022/07/31 04:46:11;;;;;;;33.03;20.77;;;;;;;;;;5055456;28;20055;-74
2022/07/31 04:48:37;;;;;;;26.40;19.50;;;;;;;;;;5055219;28;20116;-74
2022/07/31 04:51:03;;;;;;;37.85;22.55;;;;;;;;;;5055527;28;20021;-73
2022/07/31 04:53:29;;;;;;;35.90;21.63;;;;;;;;;;5055938;28;20025;-75
2022/07/31 04:58:40;;;;;;;33.03;21.23;;;;;;;;;;5063820;28;20040;-74
2022/07/31 05:01:06;;;;;;;32.25;21.58;;;;;;;;;;5044297;28;20029;-74
2022/07/31 05:03:32;;;;;;;34.45;22.98;;;;;;;;;;5063120;28;20167;-73
2022/07/31 05:06:09;;;;;;;39.92;24.00;;;;;;;;;;5062911;28;20029;-73
2022/07/31 05:08:35;;;;;;;33.30;22.20;;;;;;;;;;5068190;28;20028;-75
2022/07/31 05:13:46;;;;;;;;;;;;;;;;;;5064440;28;20108;-77
2022/07/31 05:16:12;;;;;;;37.22;21.42;;;;;;;;;;5054625;28;19909;-78
2022/07/31 05:18:38;;;;;;;36.85;23.73;;;;;;;;;;5056220;28;20033;-78
2022/07/31 05:21:04;;;;;;;37.75;23.77;;;;;;;;;;5055191;28;20086;-77
2022/07/31 05:23:30;;;;;;;29.15;21.65;;;;;;;;;;5054590;28;20067;-76
2022/07/31 05:25:55;;;;;;;33.47;25.25;;;;;;;;;;5067173;28;20060;-79
2022/07/31 05:28:21;;;;;;;35.28;22.23;;;;;;;;;;5062798;28;20056;-76
2022/07/31 05:30:47;;;;;;;31.55;21.80;;;;;;;;;;5054876;28;20029;-75
2022/07/31 05:33:13;;;;;;;36.55;25.45;;;;;;;;;;5053808;28;20107;-77
2022/07/31 05:35:39;;;;;;;37.00;23.45;;;;;;;;;;5054100;28;20025;-75
2022/07/31 05:38:05;;;;;;;36.92;22.27;;;;;;;;;;5054679;28;20033;-76
2022/07/31 05:40:31;;;;;;;31.40;22.73;;;;;;;;;;5054472;28;20033;-75
2022/07/31 05:42:57;;;;;;;35.25;23.58;;;;;;;;;;5054503;28;20025;-75
2022/07/31 05:45:23;;;;;;;35.28;23.60;;;;;;;;;;5057909;28;20110;-78
2022/07/31 05:47:49;;;;;;;33.58;21.17;;;;;;;;;;5081201;22;20045;-76
2022/07/31 05:50:16;;;;;;;29.08;19.38;;;;;;;;;;5075310;28;20395;-77
2022/07/31 05:52:42;;;;;;;39.03;19.95;;;;;;;;;;5074710;28;20051;-76
2022/07/31 05:55:08;;;;;;;30.40;17.30;;;;;;;;;;5074590;28;20221;-75
2022/07/31 05:57:34;;;;;;;29.55;15.73;;;;;;;;;;5074689;28;20035;-76
2022/07/31 06:00:00;;;;;;;31.58;18.83;;;;;;;;;;5074711;28;20385;-76
2022/07/31 06:02:26;;;;;;;29.08;15.57;;;;;;;;;;5074536;28;20028;-75
2022/07/31 06:04:52;;;;;;;28.92;15.48;;;;;;;;;;5074199;28;20484;-75
2022/07/31 06:07:18;;;;;;;39.38;17.05;;;;;;;;;;5075903;28;20039;-73
2022/07/31 06:09:44;;;;;;;26.13;14.93;;;;;;;;;;5076343;28;20024;-75
2022/07/31 06:12:10;;;;;;;35.20;16.15;;;;;;;;;;5076180;28;20025;-74
2022/07/31 06:14:36;;;;;;;26.42;14.95;;;;;;;;;;5075127;28;20070;-75
2022/07/31 06:17:05;;;;;;;29.20;13.10;;;;;;;;;;5074331;28;20025;-76
2022/07/31 06:19:32;;;;;;;22.10;12.07;;;;;;;;;;5078914;28;20024;-81
2022/07/31 06:21:58;;;;;;;25.83;13.20;;;;;;;;;;5080246;28;20094;-80
2022/07/31 06:24:24;;;;;;;18.38;10.00;;;;;;;;;;5062739;28;20052;-79
2022/07/31 06:26:50;;;;;;;15.65;9.10;;;;;;;;;;5064066;28;20034;-76
2022/07/31 06:29:16;;;;;;;22.10;9.65;;;;;;;;;;5085460;28;20025;-78
2022/07/31 06:31:42;;;;;;;20.00;12.27;;;;;;;;;;5087418;28;20025;-81
2022/07/31 06:34:08;;;;;;;18.65;9.30;;;;;;;;;;5081364;28;20251;-79
2022/07/31 06:36:34;;;;;;;20.58;8.68;;;;;;;;;;5080402;28;20063;-77
2022/07/31 06:39:00;;;;;;;14.10;7.75;;;;;;;;;;5080881;28;20032;-78
2022/07/31 06:44:10;;;;;;;19.38;8.50;;;;;;;;;;5086692;28;20546;-76
2022/07/31 06:46:36;;;;;;;16.13;7.07;;;;;;;;;;5087132;28;20044;-78
2022/07/31 06:49:02;;;;;;;12.55;6.70;;;;;;;;;;5080504;28;20042;-77
2022/07/31 06:51:29;;;;;;;16.88;6.95;;;;;;;;;;5079534;28;20039;-76
2022/07/31 06:53:55;;;;;;;16.00;6.35;;;;;;;;;;5082776;28;20024;-77
2022/07/31 06:56:21;;;;;;;19.38;6.50;;;;;;;;;;5076628;28;20102;-76
2022/07/31 06:58:47;;;;;;;12.57;5.45;;;;;;;;;;5083775;28;20029;-75
2022/07/31 07:01:13;;;;;;;18.58;5.35;;;;;;;;;;5074795;28;20465;-74
2022/07/31 07:03:39;;;;;;;19.27;5.47;;;;;;;;;;5075546;28;20032;-76
2022/07/31 07:06:05;;;;;;;10.77;4.93;;;;;;;;;;5076998;28;20094;-76
2022/07/31 07:08:31;;;;;;;11.20;4.53;;;;;;;;;;5075636;28;20020;-76
2022/07/31 07:10:57;;;;;;;7.97;4.28;;;;;;;;;;5081530;28;20434;-75
2022/07/31 07:13:25;;;;;;;12.27;4.15;;;;;;;;;;5073929;28;20028;-76
2022/07/31 07:15:51;;;;;;;10.73;3.90;;;;;;;;;;5077019;28;20067;-75
2022/07/31 07:18:17;;;;;;;10.85;4.30;;;;;;;;;;5074207;28;20025;-76
2022/07/31 07:20:43;;;;;;;15.57;4.70;;;;;;;;;;5073365;28;20028;-77
2022/07/31 07:23:09;;;;;;;8.30;3.30;;;;;;;;;;5075719;28;20058;-76
2022/07/31 07:25:35;;;;;;;9.23;3.00;;;;;;;;;;5077490;28;20028;-77
2022/07/31 07:28:01;;;;;;;10.30;2.80;;;;;;;;;;5057017;28;20543;-78
2022/07/31 07:30:27;;;;;;;5.78;2.20;;;;;;;;;;5074170;28;20491;-75
2022/07/31 07:32:53;;;;;;;8.23;2.50;;;;;;;;;;5076697;28;20100;-76
2022/07/31 07:35:20;;;;;;;5.97;2.50;;;;;;;;;;5075925;28;20028;-77
2022/07/31 07:37:46;;;;;;;10.40;3.28;;;;;;;;;;5076096;28;20366;-76
2022/07/31 07:40:13;;;;;;;4.55;2.55;;;;;;;;;;5079431;28;20033;-77
2022/07/31 07:42:39;;;;;;;12.10;2.33;;;;;;;;;;5079432;28;20041;-76
2022/07/31 07:45:05;;;;;;;8.10;2.90;;;;;;;;;;5078341;28;20093;-78
2022/07/31 07:47:31;;;;;;;11.98;2.95;;;;;;;;;;5060469;28;20017;-77
2022/07/31 07:49:57;;;;;;;8.98;3.65;;;;;;;;;;5079022;28;20040;-77
2022/07/31 07:52:23;;;;;;;12.10;3.83;;;;;;;;;;5076255;28;20031;-75
2022/07/31 07:54:49;;;;;;;14.18;4.05;;;;;;;;;;5074239;28;20067;-76
2022/07/31 07:57:21;;;;;;;11.52;5.32;;;;;;;;;;5074502;28;20426;-76
2022/07/31 07:59:48;;;;;;;13.32;4.57;;;;;;;;;;5056280;28;20105;-77
2022/07/31 08:02:14;;;;;;;10.77;4.22;;;;;;;;;;5074029;28;20050;-77
2022/07/31 08:04:40;;;;;;;15.10;4.95;;;;;;;;;;5075085;28;20104;-77
2022/07/31 08:07:06;;;;;;;11.18;4.22;;;;;;;;;;5076693;28;20024;-76
2022/07/31 08:09:33;;;;;;;12.88;5.07;;;;;;;;;;5074660;28;20024;-76
2022/07/31 08:11:59;;;;;;;11.25;4.38;;;;;;;;;;5074482;28;20032;-75
2022/07/31 08:14:25;;;;;;;9.73;4.43;;;;;;;;;;5073247;28;20537;-77
2022/07/31 08:16:52;;;;;;;14.73;4.10;;;;;;;;;;5073944;28;20063;-77
2022/07/31 08:19:18;;;;;;;13.23;3.95;;;;;;;;;;5073425;28;20447;-77
2022/07/31 08:21:44;;;;;;;7.32;3.38;;;;;;;;;;5056195;28;20035;-75
2022/07/31 08:24:10;;;;;;;10.27;4.40;;;;;;;;;;5075237;28;20412;-77
2022/07/31 08:29:21;;;;;;;7.50;2.85;;;;;;;;;;5074537;28;20040;-76
2022/07/31 08:31:47;;;;;;;5.80;2.58;;;;;;;;;;5075433;28;20021;-77
2022/07/31 08:34:13;;;;;;;9.70;3.40;;;;;;;;;;5073788;28;20020;-77
2022/07/31 08:36:39;;;;;;;11.07;3.05;;;;;;;;;;5073255;28;20043;-77
2022/07/31 08:39:06;;;;;;;11.75;2.85;;;;;;;;;;5071998;28;20044;-76
2022/07/31 08:41:32;;;;;;;10.63;3.88;;;;;;;;;;5072553;28;20020;-75
2022/07/31 08:43:58;;;;;;;11.60;3.45;;;;;;;;;;5073075;28;20112;-76
2022/07/31 08:46:25;;;;;;;10.25;4.57;;;;;;;;;;5072914;28;20524;-76
2022/07/31 08:48:53;;;;;;;11.02;3.30;;;;;;;;;;5072654;28;20033;-78
2022/07/31 08:51:19;;;;;;;8.07;3.00;;;;;;;;;;5073159;28;20481;-77
2022/07/31 08:53:46;;;;;;;7.68;2.90;;;;;;;;;;5072802;28;20025;-75
2022/07/31 08:56:12;;;;;;;9.23;2.67;;;;;;;;;;5072483;28;20028;-77
2022/07/31 08:58:38;;;;;;;8.60;2.72;;;;;;;;;;5074580;28;20119;-76
2022/07/31 09:01:04;;;;;;;7.05;2.30;;;;;;;;;;5073526;28;20067;-76
2022/07/31 09:03:30;;;;;;;7.85;2.50;;;;;;;;;;5075517;28;20024;-79
2022/07/31 09:05:56;;;;;;;7.65;2.42;;;;;;;;;;5079162;28;20531;-79
2022/07/31 09:08:22;;;;;;;8.18;3.40;;;;;;;;;;5078706;28;20023;-78
2022/07/31 09:10:48;;;;;;;6.18;2.60;;;;;;;;;;5081297;28;20023;-75
2022/07/31 09:13:15;;;;;;;9.35;2.45;;;;;;;;;;5080279;28;20024;-77
2022/07/31 09:15:42;;;;;;;10.43;2.60;;;;;;;;;;5075578;28;20488;-75
2022/07/31 09:18:23;;;;;;;6.07;2.58;;;;;;;;;;5074813;28;20135;-77
2022/07/31 09:20:55;;;;;;;8.20;2.10;;;;;;;;;;5060893;28;20024;-78
2022/07/31 09:23:21;;;;;;;8.20;2.80;;;;;;;;;;5076195;28;20020;-78
2022/07/31 09:25:52;;;;;;;11.40;2.97;;;;;;;;;;5075970;28;20028;-75
2022/07/31 09:28:18;;;;;;;6.80;2.85;;;;;;;;;;5077415;28;20020;-76
2022/07/31 09:30:52;;;;;;;8.63;2.85;;;;;;;;;;5081102;28;20218;-76
2022/07/31 09:33:20;;;;;;;8.27;2.65;;;;;;;;;;5076224;28;20492;-76
2022/07/31 09:35:49;;;;;;;6.80;2.40;;;;;;;;;;5075302;28;20078;-77
2022/07/31 09:38:16;;;;;;;10.02;2.65;;;;;;;;;;5075632;28;20025;-76
2022/07/31 09:40:45;;;;;;;9.80;3.08;;;;;;;;;;5075912;28;20021;-75
2022/07/31 09:43:18;;;;;;;8.52;2.85;;;;;;;;;;5075388;28;20020;-76
2022/07/31 09:45:48;;;;;;;10.15;2.65;;;;;;;;;;5073255;28;20028;-76
2022/07/31 09:48:14;;;;;;;9.95;2.67;;;;;;;;;;5074831;28;20035;-75
2022/07/31 09:50:52;;;;;;;6.30;2.60;;;;;;;;;;5075991;28;20104;-77
2022/07/31 09:53:18;;;;;;;11.75;3.00;;;;;;;;;;5076213;28;20024;-77
2022/07/31 09:55:51;;;;;;;8.50;2.88;;;;;;;;;;5074438;28;20024;-76
2022/07/31 09:58:17;;;;;;;9.32;2.72;;;;;;;;;;5073798;28;20099;-76
2022/07/31 10:00:43;;;;;;;6.28;2.08;;;;;;;;;;5076855;28;20055;-78
2022/07/31 10:03:09;;;;;;;11.88;2.60;;;;;;;;;;5061829;28;20383;-78
2022/07/31 10:05:36;;;;;;;8.93;2.33;;;;;;;;;;5077222;28;20033;-78
2022/07/31 10:08:03;;;;;;;7.30;2.78;;;;;;;;;;5078169;28;20020;-77
2022/07/31 10:10:29;;;;;;;8.45;2.30;;;;;;;;;;5077275;28;20021;-78
2022/07/31 10:12:55;;;;;;;7.50;2.40;;;;;;;;;;5075800;28;20021;-78
2022/07/31 10:15:22;;;;;;;9.43;2.72;;;;;;;;;;5077155;28;20025;-78
2022/07/31 10:17:49;;;;;;;5.53;2.13;;;;;;;;;;5077817;28;20025;-76
2022/07/31 10:20:18;;;;;;;10.48;2.40;;;;;;;;;;5076909;28;20096;-78
2022/07/31 10:22:45;;;;;;;6.13;2.00;;;;;;;;;;5078807;28;20020;-79
2022/07/31 10:25:14;;;;;;;8.30;1.80;;;;;;;;;;5081006;28;20025;-78
2022/07/31 10:27:40;;;;;;;15.05;2.10;;;;;;;;;;5076848;28;20369;-78
2022/07/31 10:30:07;;;;;;;5.32;1.90;;;;;;;;;;5060957;28;20055;-77
2022/07/31 10:32:33;;;;;;;9.27;2.05;;;;;;;;;;5084706;28;20013;-77
2022/07/31 10:34:59;;;;;;;7.53;2.08;;;;;;;;;;5083650;28;20032;-76
2022/07/31 10:37:34;;;;;;;8.48;1.70;;;;;;;;;;5078912;28;20048;-78
2022/07/31 10:40:08;;;;;;;8.32;2.22;;;;;;;;;;5054478;28;20505;-78
2022/07/31 10:42:42;;;;;;;5.22;1.90;;;;;;;;;;5077105;28;20027;-77
2022/07/31 10:45:09;;;;;;;5.95;2.47;;;;;;;;;;5079860;28;20032;-77
2022/07/31 10:47:35;;;;;;;7.60;2.08;;;;;;;;;;5079274;28;20013;-76
2022/07/31 10:50:01;;;;;;;13.13;1.98;;;;;;;;;;5077225;28;20040;-77
2022/07/31 10:52:27;;;;;;;5.50;2.33;;;;;;;;;;5078793;28;20497;-78
2022/07/31 10:54:56;;;;;;;7.22;2.33;;;;;;;;;;5078228;28;20027;-76
2022/07/31 10:57:25;;;;;;;10.07;1.98;;;;;;;;;;5062317;28;20017;-77
2022/07/31 10:59:51;;;;;;;7.53;3.10;;;;;;;;;;5065256;28;20056;-77
2022/07/31 11:02:30;;;;;;;6.50;2.13;;;;;;;;;;5078993;28;20021;-77
2022/07/31 11:05:06;;;;;;;9.50;2.25;;;;;;;;;;5078115;28;20024;-78
2022/07/31 11:07:32;;;;;;;7.05;2.25;;;;;;;;;;5069865;28;20045;-76
2022/07/31 11:10:28;;;;;;;7.47;2.55;;;;;;;;;;5068940;28;20031;-77
2022/07/31 11:13:00;;;;;;;13.90;2.92;;;;;;;;;;5073199;28;20048;-77
2022/07/31 11:15:27;;;;;;;6.90;2.20;;;;;;;;;;5067713;28;20113;-77
2022/07/31 11:17:53;;;;;;;9.88;2.30;;;;;;;;;;5091474;28;20024;-76
2022/07/31 11:20:19;;;;;;;4.82;2.20;;;;;;;;;;5073508;28;20029;-76
2022/07/31 11:22:58;;;;;;;8.13;2.63;;;;;;;;;;5092753;28;20052;-75
2022/07/31 11:25:28;;;;;;;6.88;2.20;;;;;;;;;;5088820;28;20031;-75
2022/07/31 11:27:54;;;;;;;10.93;2.70;;;;;;;;;;5090187;28;20075;-76
2022/07/31 11:30:20;;;;;;;10.48;5.68;;;;;;;;;;5086030;28;20054;-77
2022/07/31 11:32:53;;;;;;;5.88;3.03;;;;;;;;;;5090092;28;20028;-78
2022/07/31 11:35:29;;;;;;;7.43;2.60;;;;;;;;;;5086088;28;20037;-78
2022/07/31 11:37:56;;;;;;;14.18;2.38;;;;;;;;;;5077757;28;20062;-79
2022/07/31 11:40:22;;;;;;;7.50;2.50;;;;;;;;;;5081392;28;20033;-76
2022/07/31 11:42:48;;;;;;;8.63;2.33;;;;;;;;;;5076629;28;20021;-78
2022/07/31 11:45:14;;;;;;;8.75;2.28;;;;;;;;;;5058813;28;20497;-77
2022/07/31 11:47:42;;;;;;;4.97;3.03;;;;;;;;;;5075362;28;20076;-78
2022/07/31 11:50:09;;;;;;;8.23;2.67;;;;;;;;;;5053574;28;20078;-77
2022/07/31 11:52:35;;;;;;;8.80;3.22;;;;;;;;;;5073606;28;20393;-77
2022/07/31 11:55:08;;;;;;;9.13;3.78;;;;;;;;;;5073728;28;20096;-77
2022/07/31 11:57:34;;;;;;;10.25;3.13;;;;;;;;;;5072897;28;20028;-78
2022/07/31 12:00:07;;;;;;;12.30;4.18;;;;;;;;;;5077035;28;20032;-76
2022/07/31 12:02:33;;;;;;;6.90;3.00;;;;;;;;;;5075690;28;20033;-77
2022/07/31 12:05:01;;;;;;;4.32;1.90;;;;;;;;;;5071720;28;20036;-77
2022/07/31 12:07:28;;;;;;;12.43;2.22;;;;;;;;;;5074562;28;20020;-77
2022/07/31 12:09:54;;;;;;;8.50;2.17;;;;;;;;;;5075039;28;20069;-77
2022/07/31 12:12:21;;;;;;;5.88;2.40;;;;;;;;;;5073054;28;20103;-77
2022/07/31 12:14:47;;;;;;;5.95;2.03;;;;;;;;;;5075642;28;20472;-78
2022/07/31 12:17:19;;;;;;;8.80;2.33;;;;;;;;;;5075125;28;20462;-77
2022/07/31 12:19:45;;;;;;;7.53;2.50;;;;;;;;;;5078721;28;20041;-77
2022/07/31 12:22:19;;;;;;;7.45;2.25;;;;;;;;;;5079981;28;20120;-78
2022/07/31 12:24:45;;;;;;;9.48;2.75;;;;;;;;;;5082604;28;20020;-78
2022/07/31 12:27:14;;;;;;;4.88;2.20;;;;;;;;;;5080571;28;20029;-79
2022/07/31 12:29:40;;;;;;;9.13;2.78;;;;;;;;;;5056716;28;20020;-78
2022/07/31 12:32:06;;;;;;;5.97;2.30;;;;;;;;;;5076370;28;20058;-77
2022/07/31 12:34:42;;;;;;;6.38;2.47;;;;;;;;;;5076422;28;20021;-75
2022/07/31 12:37:12;;;;;;;8.65;2.80;;;;;;;;;;5061513;28;20074;-76
2022/07/31 12:39:38;;;;;;;10.77;2.63;;;;;;;;;;5080368;28;20071;-77
2022/07/31 12:42:04;;;;;;;7.10;3.08;;;;;;;;;;5081793;28;20029;-77
2022/07/31 12:44:30;;;;;;;9.10;3.13;;;;;;;;;;5065998;28;20032;-77
2022/07/31 12:46:56;;;;;;;6.63;2.47;;;;;;;;;;5063703;28;20035;-77
2022/07/31 12:49:22;;;;;;;11.25;3.03;;;;;;;;;;5083709;28;20086;-80
2022/07/31 12:51:48;;;;;;;17.20;6.72;;;;;;;;;;5086495;28;20028;-80
2022/07/31 12:54:15;;;;;;;11.70;5.65;;;;;;;;;;5086550;28;20023;-77
2022/07/31 12:56:41;;;;;;;6.85;2.50;;;;;;;;;;5082392;28;20028;-79
2022/07/31 12:59:09;;;;;;;8.13;2.83;;;;;;;;;;5076774;28;20376;-78
2022/07/31 13:01:35;;;;;;;8.30;2.42;;;;;;;;;;5077658;28;20025;-78
2022/07/31 13:04:02;;;;;;;14.18;3.00;;;;;;;;;;5078800;28;20020;-77
2022/07/31 13:06:29;;;;;;;6.80;2.65;;;;;;;;;;5078285;28;20107;-78
2022/07/31 13:08:55;;;;;;;10.10;2.25;;;;;;;;;;5067842;28;20016;-78
2022/07/31 13:11:21;;;;;;;9.13;2.88;;;;;;;;;;5079648;28;20385;-77
2022/07/31 13:13:47;;;;;;;6.40;2.13;;;;;;;;;;5061323;28;20016;-76
2022/07/31 13:16:13;;;;;;;7.30;2.72;;;;;;;;;;5073274;28;20039;-78
2022/07/31 13:18:39;;;;;;;8.05;2.92;;;;;;;;;;5075591;28;20024;-77
2022/07/31 13:21:05;;;;;;;11.52;2.33;;;;;;;;;;5060601;28;20115;-78
2022/07/31 13:23:32;;;;;;;8.68;2.60;;;;;;;;;;5079057;28;20029;-79
2022/07/31 13:25:58;;;;;;;5.10;2.78;;;;;;;;;;5081524;28;20032;-77
2022/07/31 13:28:24;;;;;;;10.18;2.47;;;;;;;;;;5080784;28;20020;-78
2022/07/31 13:30:50;;;;;;;7.75;2.70;;;;;;;;;;5079654;28;20485;-78
2022/07/31 13:33:16;;;;;;;6.28;2.42;;;;;;;;;;5081373;28;20361;-77
2022/07/31 13:35:42;;;;;;;11.20;2.55;;;;;;;;;;5082515;28;20039;-77
2022/07/31 13:38:08;;;;;;;9.00;2.90;;;;;;;;;;5060583;28;20020;-78
2022/07/31 13:41:19;;;;;;;10.25;3.00;;;;;;;;;;5078423;28;20020;-77
2022/07/31 13:43:20;;;;;;;7.57;3.15;;;;;;;;;;5065939;28;20433;-78
2022/07/31 13:45:49;;;;;;;6.72;2.33;;;;;;;;;;5076519;28;20028;-77
2022/07/31 13:48:15;;;;;;;7.88;2.50;;;;;;;;;;5076330;28;20020;-77
2022/07/31 13:50:41;;;;;;;7.57;2.72;;;;;;;;;;5076256;28;20067;-77
2022/07/31 13:53:07;;;;;;;6.15;2.60;;;;;;;;;;5077652;28;20028;-79
2022/07/31 13:55:33;;;;;;;7.18;2.55;;;;;;;;;;5075992;28;20119;-78
2022/07/31 13:58:00;;;;;;;6.68;2.20;;;;;;;;;;5059325;28;20466;-78
2022/07/31 14:00:26;;;;;;;6.00;2.45;;;;;;;;;;5078027;28;20509;-77
2022/07/31 14:02:52;;;;;;;4.78;2.20;;;;;;;;;;5058944;28;20040;-76
2022/07/31 14:05:18;;;;;;;12.55;2.97;;;;;;;;;;5078899;28;20367;-76
2022/07/31 14:07:44;;;;;;;6.53;2.88;;;;;;;;;;5063067;28;20056;-76
2022/07/31 14:10:10;;;;;;;9.15;2.50;;;;;;;;;;5055484;28;20581;-78
2022/07/31 14:12:36;;;;;;;8.25;2.92;;;;;;;;;;5059104;28;20064;-77
2022/07/31 14:15:03;;;;;;;13.05;4.88;;;;;;;;;;5039106;28;20025;-79
2022/07/31 14:19:55;;;;;;;9.20;2.85;;;;;;;;;;5072253;22;20053;-77
2022/07/31 14:22:21;;;;;;;7.18;2.90;;;;;;;;;;5071928;28;20079;-76
2022/07/31 14:24:47;;;;;;;5.85;2.70;;;;;;;;;;5074442;28;20025;-77
2022/07/31 14:27:13;;;;;;;6.30;3.00;;;;;;;;;;5072476;28;20047;-77
2022/07/31 14:29:39;;;;;;;11.85;2.80;;;;;;;;;;5072959;28;20074;-77
2022/07/31 14:32:06;;;;;;;4.60;2.30;;;;;;;;;;5069321;28;20021;-76
2022/07/31 14:34:32;;;;;;;7.35;2.78;;;;;;;;;;5064235;28;20120;-76
2022/07/31 14:36:58;;;;;;;9.65;3.25;;;;;;;;;;5038877;28;20056;-77
2022/07/31 14:39:24;;;;;;;7.20;2.97;;;;;;;;;;5056416;28;20086;-77
2022/07/31 14:41:50;;;;;;;12.30;3.13;;;;;;;;;;5059134;28;20035;-76